createdAt,value
2023-03-06T00:00:37.734Z,48.25
2023-03-06T00:03:05.093Z,48.18
2023-03-06T00:05:31.944Z,46.59
2023-03-06T00:07:58.544Z,48.18
2023-03-06T00:10:25.137Z,46.96
2023-03-06T00:12:52.210Z,46.37
2023-03-06T00:15:18.666Z,45.43
2023-03-06T00:17:45.211Z,46.63
2023-03-06T00:20:11.989Z,46.84
2023-03-06T00:22:38.413Z,46.82
2023-03-06T00:25:05.153Z,46.72
2023-03-06T00:27:31.589Z,48.07
2023-03-06T00:29:58.230Z,47.73
2023-03-06T00:32:24.857Z,48.52
2023-03-06T00:34:51.571Z,48.86
2023-03-06T00:37:18.023Z,48.66
2023-03-06T00:39:44.477Z,48.00
2023-03-06T00:42:10.876Z,47.84
2023-03-06T00:44:37.328Z,48.16
2023-03-06T00:47:03.696Z,47.66
2023-03-06T00:49:30.095Z,47.61
2023-03-06T00:51:56.538Z,47.63
2023-03-06T00:54:22.953Z,45.95
2023-03-06T00:56:49.339Z,46.34
2023-03-06T00:59:15.739Z,47.43
2023-03-06T01:01:42.393Z,47.44
2023-03-06T01:04:08.857Z,47.49
2023-03-06T01:06:35.270Z,47.79
2023-03-06T01:09:01.661Z,48.21
2023-03-06T01:11:28.083Z,47.23
2023-03-06T01:13:54.469Z,46.75
2023-03-06T01:16:20.938Z,48.57
2023-03-06T01:18:47.342Z,47.00
2023-03-06T01:21:13.777Z,46.82
2023-03-06T01:23:40.196Z,47.17
2023-03-06T01:26:06.627Z,46.60
2023-03-06T01:28:33.093Z,46.73
2023-03-06T01:30:59.462Z,46.41
2023-03-06T01:33:25.846Z,46.52
2023-03-06T01:35:52.248Z,46.59
2023-03-06T01:38:18.633Z,46.30
2023-03-06T01:40:45.033Z,46.03
2023-03-06T01:43:11.415Z,46.49
2023-03-06T01:45:37.835Z,46.34
2023-03-06T01:48:04.246Z,45.98
2023-03-06T01:50:30.634Z,45.22
2023-03-06T01:52:57.029Z,46.31
2023-03-06T01:55:23.636Z,45.20
2023-03-06T01:57:50.019Z,45.15
2023-03-06T02:00:16.398Z,45.12
2023-03-06T02:02:42.939Z,44.92
2023-03-06T02:05:09.397Z,44.47
2023-03-06T02:07:35.805Z,44.93
2023-03-06T02:10:02.236Z,45.62
2023-03-06T02:12:28.691Z,46.08
2023-03-06T02:14:55.065Z,45.46
2023-03-06T02:17:21.491Z,44.71
2023-03-06T02:19:47.971Z,45.25
2023-03-06T02:22:14.397Z,44.95
2023-03-06T02:24:40.780Z,43.29
2023-03-06T02:27:07.162Z,43.45
2023-03-06T02:29:33.561Z,43.59
2023-03-06T02:32:00.045Z,43.63
2023-03-06T02:34:26.474Z,44.02
2023-03-06T02:36:52.896Z,44.95
2023-03-06T02:39:19.259Z,43.43
2023-03-06T02:41:45.661Z,44.73
2023-03-06T02:44:12.057Z,45.49
2023-03-06T02:46:38.448Z,43.83
2023-03-06T02:49:04.817Z,44.07
2023-03-06T02:51:31.179Z,43.79
2023-03-06T02:53:57.608Z,44.10
2023-03-06T02:56:24.043Z,44.93
2023-03-06T02:58:50.450Z,44.20
2023-03-06T03:01:16.867Z,44.07
2023-03-06T03:03:43.290Z,44.98
2023-03-06T03:06:09.664Z,43.82
2023-03-06T03:08:36.105Z,44.41
2023-03-06T03:11:02.505Z,43.05
2023-03-06T03:13:29.064Z,43.99
2023-03-06T03:15:55.555Z,44.58
2023-03-06T03:18:21.979Z,43.81
2023-03-06T03:20:48.395Z,43.76
2023-03-06T03:23:14.951Z,44.86
2023-03-06T03:25:41.377Z,44.30
2023-03-06T03:28:07.790Z,45.16
2023-03-06T03:30:34.186Z,45.95
2023-03-06T03:33:00.568Z,46.34
2023-03-06T03:35:26.991Z,45.96
2023-03-06T03:37:53.443Z,46.06
2023-03-06T03:40:20.498Z,45.79
2023-03-06T03:42:46.933Z,44.53
2023-03-06T03:45:13.331Z,43.92
2023-03-06T03:47:39.722Z,42.55
2023-03-06T03:50:06.157Z,42.46
2023-03-06T03:52:32.530Z,43.03
2023-03-06T03:54:58.936Z,42.89
2023-03-06T03:57:25.431Z,41.89
2023-03-06T03:59:51.861Z,43.25
2023-03-06T04:02:18.396Z,39.77
2023-03-06T04:04:44.947Z,40.02
2023-03-06T04:07:11.366Z,40.96
2023-03-06T04:09:37.757Z,40.34
2023-03-06T04:12:04.106Z,40.52
2023-03-06T04:14:30.519Z,40.24
2023-03-06T04:16:56.921Z,39.45
2023-03-06T04:19:23.387Z,38.76
2023-03-06T04:21:49.782Z,38.62
2023-03-06T04:24:16.277Z,39.71
2023-03-06T04:26:42.724Z,39.45
2023-03-06T04:29:09.181Z,38.69
2023-03-06T04:31:35.655Z,39.35
2023-03-06T04:34:04.050Z,40.16
2023-03-06T04:36:30.495Z,40.74
2023-03-06T04:38:56.929Z,40.31
2023-03-06T04:41:23.367Z,39.34
2023-03-06T04:43:49.890Z,40.96
2023-03-06T04:46:16.314Z,41.08
2023-03-06T04:48:42.722Z,42.16
2023-03-06T04:51:09.098Z,41.14
2023-03-06T04:53:35.482Z,39.49
2023-03-06T04:56:02.056Z,39.09
2023-03-06T04:58:28.483Z,39.89
2023-03-06T05:00:54.892Z,39.35
2023-03-06T05:03:21.315Z,39.80
2023-03-06T05:05:47.720Z,39.43
2023-03-06T05:08:14.137Z,39.30
2023-03-06T05:10:40.516Z,39.90
2023-03-06T05:13:06.949Z,41.05
2023-03-06T05:15:33.431Z,40.44
2023-03-06T05:17:59.821Z,39.10
2023-03-06T05:20:26.327Z,40.25
2023-03-06T05:22:52.742Z,39.28
2023-03-06T05:25:19.196Z,39.71
2023-03-06T05:27:45.586Z,40.00
2023-03-06T05:30:12.100Z,41.44
2023-03-06T05:32:38.569Z,40.28
2023-03-06T05:35:04.966Z,39.85
2023-03-06T05:37:31.364Z,41.29
2023-03-06T05:39:57.945Z,40.74
2023-03-06T05:42:24.353Z,41.10
2023-03-06T05:44:50.735Z,40.17
2023-03-06T05:47:17.154Z,41.32
2023-03-06T05:49:43.617Z,41.95
2023-03-06T05:52:10.049Z,42.03
2023-03-06T05:54:36.609Z,41.88
2023-03-06T05:57:06.016Z,41.88
2023-03-06T05:59:32.402Z,42.55
2023-03-06T06:01:58.844Z,42.01
2023-03-06T06:04:25.274Z,42.50
2023-03-06T06:06:51.765Z,43.83
2023-03-06T06:09:18.217Z,43.63
2023-03-06T06:11:44.674Z,43.01
2023-03-06T06:14:11.266Z,42.53
2023-03-06T06:16:37.773Z,42.94
2023-03-06T06:19:04.195Z,41.04
2023-03-06T06:21:30.656Z,40.97
2023-03-06T06:23:57.122Z,42.31
2023-03-06T06:26:23.566Z,47.66
2023-03-06T06:28:49.940Z,43.10
2023-03-06T06:31:16.426Z,42.08
2023-03-06T06:33:43.172Z,42.56
2023-03-06T06:36:09.595Z,43.01
2023-03-06T06:38:35.964Z,43.35
2023-03-06T06:41:31.080Z,44.34
2023-03-06T06:43:48.782Z,44.62
2023-03-06T06:46:53.353Z,45.84
2023-03-06T06:49:02.797Z,45.22
2023-03-06T06:51:29.202Z,45.85
2023-03-06T06:53:55.597Z,44.81
2023-03-06T06:56:22.053Z,46.05
2023-03-06T06:58:48.637Z,44.36
2023-03-06T07:01:15.046Z,44.62
2023-03-06T07:03:41.567Z,45.16
2023-03-06T07:06:08.003Z,45.77
2023-03-06T07:08:34.434Z,47.34
2023-03-06T07:11:00.834Z,46.94
2023-03-06T07:13:27.258Z,43.80
2023-03-06T07:15:53.716Z,43.71
2023-03-06T07:18:20.179Z,44.94
2023-03-06T07:20:46.599Z,46.68
2023-03-06T07:23:13.025Z,45.36
2023-03-06T07:25:39.411Z,44.96
2023-03-06T07:28:05.985Z,43.99
2023-03-06T07:30:32.363Z,43.82
2023-03-06T07:32:58.773Z,42.05
2023-03-06T07:35:25.171Z,41.94
2023-03-06T07:37:51.563Z,42.86
2023-03-06T07:40:17.986Z,44.03
2023-03-06T07:42:44.402Z,43.60
2023-03-06T07:45:10.811Z,44.09
2023-03-06T07:47:37.216Z,43.86
2023-03-06T07:50:03.607Z,42.34
2023-03-06T07:52:30.002Z,44.01
2023-03-06T07:54:56.420Z,42.85
2023-03-06T07:57:22.817Z,43.69
2023-03-06T07:59:49.219Z,45.27
2023-03-06T08:02:15.712Z,43.89
2023-03-06T08:04:42.211Z,43.43
2023-03-06T08:07:08.765Z,44.39
2023-03-06T08:09:35.166Z,44.36
2023-03-06T08:12:01.578Z,46.54
2023-03-06T08:14:28.067Z,43.89
2023-03-06T08:16:54.469Z,43.89
2023-03-06T08:19:20.931Z,44.62
2023-03-06T08:21:47.314Z,43.60
2023-03-06T08:24:13.717Z,45.20
2023-03-06T08:26:40.175Z,46.58
2023-03-06T08:29:06.568Z,45.95
2023-03-06T08:31:33.142Z,46.87
2023-03-06T08:33:59.593Z,45.66
2023-03-06T08:36:25.982Z,45.85
2023-03-06T08:38:52.419Z,45.82
2023-03-06T08:41:20.242Z,45.92
2023-03-06T08:43:46.737Z,45.45
2023-03-06T08:46:13.201Z,45.68
2023-03-06T08:48:39.657Z,45.46
2023-03-06T08:51:06.065Z,44.83
2023-03-06T08:53:42.731Z,43.94
2023-03-06T08:56:09.906Z,44.17
2023-03-06T08:58:36.317Z,44.12
2023-03-06T09:01:02.844Z,44.04
2023-03-06T09:03:29.308Z,43.83
2023-03-06T09:05:55.729Z,44.84
2023-03-06T09:08:22.094Z,44.86
2023-03-06T09:10:48.839Z,44.72
2023-03-06T09:13:15.251Z,45.32
2023-03-06T09:15:41.772Z,43.51
2023-03-06T09:18:08.232Z,41.52
2023-03-06T09:20:34.685Z,43.10
2023-03-06T09:23:01.090Z,43.53
2023-03-06T09:25:27.464Z,41.10
2023-03-06T09:28:10.120Z,40.41
2023-03-06T09:30:37.107Z,40.97
2023-03-06T09:33:03.614Z,39.94
2023-03-06T09:35:30.178Z,38.04
2023-03-06T09:37:56.649Z,38.06
2023-03-06T09:40:23.145Z,38.25
2023-03-06T09:42:49.573Z,39.18
2023-03-06T09:45:16.047Z,39.19
2023-03-06T09:47:42.430Z,37.68
2023-03-06T09:50:08.946Z,39.31
2023-03-06T09:52:35.377Z,40.55
2023-03-06T09:55:01.794Z,37.87
2023-03-06T09:57:28.202Z,38.79
2023-03-06T09:59:54.625Z,36.74
2023-03-06T10:02:21.158Z,35.91
2023-03-06T10:04:47.754Z,37.52
2023-03-06T10:07:14.201Z,36.10
2023-03-06T10:09:40.656Z,33.21
2023-03-06T10:12:07.291Z,31.54
2023-03-06T10:14:33.758Z,30.37
2023-03-06T10:17:00.233Z,30.37
2023-03-06T10:19:26.722Z,28.80
2023-03-06T10:21:53.135Z,28.27
2023-03-06T10:24:19.539Z,29.33
2023-03-06T10:26:46.142Z,28.65
2023-03-06T10:29:12.648Z,28.40
2023-03-06T10:31:39.100Z,28.39
2023-03-06T10:34:05.479Z,27.58
2023-03-06T10:36:31.877Z,27.43
2023-03-06T10:38:58.244Z,26.45
2023-03-06T10:41:24.730Z,26.86
2023-03-06T10:43:51.161Z,26.26
2023-03-06T10:46:17.780Z,25.74
2023-03-06T10:48:44.214Z,25.11
2023-03-06T10:51:18.055Z,24.33
2023-03-06T10:53:45.091Z,24.37
2023-03-06T10:56:11.525Z,23.48
2023-03-06T10:58:39.155Z,24.42
2023-03-06T11:01:05.625Z,23.70
2023-03-06T11:03:32.044Z,22.38
2023-03-06T11:05:58.594Z,22.42
2023-03-06T11:08:25.121Z,21.26
2023-03-06T11:10:51.526Z,22.16
2023-03-06T11:13:17.950Z,24.11
2023-03-06T11:15:44.468Z,24.02
2023-03-06T11:18:10.917Z,23.52
2023-03-06T11:20:50.404Z,24.67
2023-03-06T11:23:17.207Z,23.35
2023-03-06T11:25:43.654Z,23.28
2023-03-06T11:28:10.160Z,23.10
2023-03-06T11:30:36.584Z,22.21
2023-03-06T11:33:03.013Z,20.97
2023-03-06T11:35:30.609Z,20.70
2023-03-06T11:37:57.002Z,20.57
2023-03-06T11:40:23.404Z,20.58
2023-03-06T11:42:49.828Z,19.97
2023-03-06T11:45:16.233Z,20.05
2023-03-06T11:47:42.794Z,20.25
2023-03-06T11:50:09.289Z,19.65
2023-03-06T11:52:35.757Z,18.83
2023-03-06T11:55:02.287Z,18.40
2023-03-06T11:57:28.729Z,18.12
2023-03-06T11:59:55.181Z,18.91
2023-03-06T12:02:21.631Z,20.27
2023-03-06T12:04:48.070Z,19.92
2023-03-06T12:07:14.517Z,20.67
2023-03-06T12:09:40.975Z,21.48
2023-03-06T12:12:07.463Z,21.82
2023-03-06T12:14:33.868Z,24.27
2023-03-06T12:17:00.308Z,31.06
2023-03-06T12:19:26.743Z,56.44
2023-03-06T12:21:53.141Z,26.04
2023-03-06T12:24:19.684Z,19.97
2023-03-06T12:26:46.084Z,42.22
2023-03-06T12:29:12.551Z,39.08
2023-03-06T12:31:39.006Z,69.65
2023-03-06T12:34:05.443Z,26.63
2023-03-06T12:36:32.054Z,44.38
2023-03-06T12:38:58.467Z,22.24
2023-03-06T12:41:24.917Z,19.57
2023-03-06T12:43:51.406Z,19.63
2023-03-06T12:46:17.896Z,20.02
2023-03-06T12:48:44.524Z,19.81
2023-03-06T12:51:11.002Z,19.53
2023-03-06T12:53:37.409Z,19.00
2023-03-06T12:56:03.932Z,17.86
2023-03-06T12:58:30.381Z,16.41
2023-03-06T13:01:03.538Z,17.78
2023-03-06T13:03:30.716Z,18.44
2023-03-06T13:05:57.306Z,19.05
2023-03-06T13:08:23.836Z,19.34
2023-03-06T13:10:50.532Z,18.56
2023-03-06T13:13:16.957Z,19.24
2023-03-06T13:15:43.405Z,19.84
2023-03-06T13:18:09.818Z,17.58
2023-03-06T13:20:36.302Z,17.02
2023-03-06T13:23:02.756Z,16.32
2023-03-06T13:25:29.215Z,15.79
2023-03-06T13:27:55.691Z,17.27
2023-03-06T13:30:22.130Z,18.16
2023-03-06T13:32:48.522Z,17.78
2023-03-06T13:35:14.922Z,17.31
2023-03-06T13:37:41.326Z,17.01
2023-03-06T13:40:07.764Z,18.09
2023-03-06T13:42:34.168Z,17.17
2023-03-06T13:45:00.612Z,16.67
2023-03-06T13:47:26.991Z,16.45
2023-03-06T13:49:53.398Z,16.36
2023-03-06T13:52:19.999Z,16.26
2023-03-06T13:54:46.420Z,15.73
2023-03-06T13:57:12.903Z,16.93
2023-03-06T13:59:39.345Z,17.36
2023-03-06T14:02:05.729Z,17.96
2023-03-06T14:04:32.271Z,17.32
2023-03-06T14:06:58.708Z,17.19
2023-03-06T14:09:25.176Z,17.50
2023-03-06T14:11:51.619Z,18.30
2023-03-06T14:14:18.073Z,16.88
2023-03-06T14:16:50.203Z,16.94
2023-03-06T14:19:17.031Z,16.58
2023-03-06T14:21:43.496Z,17.22
2023-03-06T14:24:09.884Z,17.12
2023-03-06T14:26:36.401Z,16.28
2023-03-06T14:29:02.829Z,15.69
2023-03-06T14:31:29.297Z,16.11
2023-03-06T14:33:55.768Z,16.32
2023-03-06T14:36:22.230Z,16.18
2023-03-06T14:38:48.680Z,16.02
2023-03-06T14:41:15.128Z,15.55
2023-03-06T14:43:41.555Z,14.78
2023-03-06T14:46:08.238Z,15.84
2023-03-06T14:48:34.645Z,14.26
2023-03-06T14:51:01.017Z,14.68
2023-03-06T14:53:27.411Z,15.66
2023-03-06T14:55:53.922Z,15.31
2023-03-06T14:58:20.442Z,15.40
2023-03-06T15:00:46.944Z,15.80
2023-03-06T15:03:13.365Z,15.72
2023-03-06T15:05:39.742Z,15.53
2023-03-06T15:08:06.182Z,15.86
2023-03-06T15:10:32.651Z,15.09
2023-03-06T15:12:59.052Z,16.96
2023-03-06T15:15:25.677Z,15.86
2023-03-06T15:17:52.054Z,15.84
2023-03-06T15:20:18.475Z,16.32
2023-03-06T15:22:44.852Z,15.20
2023-03-06T15:25:11.673Z,15.41
2023-03-06T15:27:38.127Z,15.43
2023-03-06T15:30:04.592Z,15.17
2023-03-06T15:32:31.070Z,15.80
2023-03-06T15:34:57.637Z,14.95
2023-03-06T15:37:24.397Z,14.90
2023-03-06T15:39:50.891Z,14.98
2023-03-06T15:42:17.276Z,15.27
2023-03-06T15:44:43.704Z,14.80
2023-03-06T15:47:10.139Z,15.00
2023-03-06T15:49:36.642Z,14.80
2023-03-06T15:52:03.109Z,13.96
2023-03-06T15:54:31.870Z,14.28
2023-03-06T15:56:59.270Z,13.82
2023-03-06T15:59:25.678Z,13.66
2023-03-06T16:01:52.495Z,13.26
2023-03-06T16:04:19.001Z,12.73
2023-03-06T16:06:45.683Z,13.13
2023-03-06T16:09:12.309Z,13.70
2023-03-06T16:11:43.959Z,14.07
2023-03-06T16:14:11.516Z,13.36
2023-03-06T16:16:38.018Z,13.17
2023-03-06T16:19:06.049Z,13.10
2023-03-06T16:21:34.321Z,13.13
2023-03-06T16:24:01.136Z,12.89
2023-03-06T16:26:30.145Z,12.72
2023-03-06T16:28:56.561Z,12.25
2023-03-06T16:31:23.110Z,12.49
2023-03-06T16:33:49.826Z,12.58
2023-03-06T16:36:16.301Z,12.07
2023-03-06T16:38:43.209Z,13.23
2023-03-06T16:41:09.761Z,13.54
2023-03-06T16:43:36.139Z,12.58
2023-03-06T16:46:02.764Z,12.65
2023-03-06T16:48:29.213Z,12.65
2023-03-06T16:50:55.624Z,12.38
2023-03-06T16:53:22.027Z,13.06
2023-03-06T16:55:48.550Z,12.39
2023-03-06T16:58:14.969Z,12.92
2023-03-06T17:00:41.624Z,13.22
2023-03-06T17:03:08.045Z,12.06
2023-03-06T17:05:34.689Z,12.53
2023-03-06T17:08:01.144Z,11.76
2023-03-06T17:10:27.542Z,12.01
2023-03-06T17:12:54.000Z,12.29
2023-03-06T17:15:20.427Z,12.85
2023-03-06T17:17:46.992Z,12.34
2023-03-06T17:20:13.402Z,12.13
2023-03-06T17:22:39.811Z,12.15
2023-03-06T17:25:06.220Z,12.73
2023-03-06T17:27:32.772Z,12.13
2023-03-06T17:29:59.466Z,12.43
2023-03-06T17:32:26.055Z,12.12
2023-03-06T17:34:52.452Z,12.54
2023-03-06T17:37:18.856Z,12.33
2023-03-06T17:39:45.385Z,12.11
2023-03-06T17:42:11.794Z,12.28
2023-03-06T17:44:38.190Z,12.26
2023-03-06T17:47:04.782Z,12.77
2023-03-06T17:49:31.390Z,12.60
2023-03-06T17:51:57.871Z,12.74
2023-03-06T17:54:24.261Z,12.81
2023-03-06T17:56:50.828Z,12.39
2023-03-06T17:59:17.215Z,12.52
2023-03-06T18:01:43.782Z,12.91
2023-03-06T18:04:10.196Z,13.31
2023-03-06T18:06:36.602Z,12.14
2023-03-06T18:09:03.189Z,12.56
2023-03-06T18:11:29.627Z,11.84
2023-03-06T18:13:56.065Z,12.45
2023-03-06T18:16:22.775Z,13.12
2023-03-06T18:18:49.289Z,11.79
2023-03-06T18:21:15.807Z,12.70
2023-03-06T18:23:42.227Z,12.85
2023-03-06T18:26:09.865Z,12.17
2023-03-06T18:28:36.349Z,12.28
2023-03-06T18:31:02.970Z,12.08
2023-03-06T18:33:29.546Z,12.38
2023-03-06T18:35:56.279Z,12.47
2023-03-06T18:38:22.910Z,12.38
2023-03-06T18:40:49.399Z,12.70
2023-03-06T18:43:15.848Z,12.65
2023-03-06T18:45:42.540Z,13.50
2023-03-06T18:48:09.165Z,13.53
2023-03-06T18:50:35.970Z,13.77
2023-03-06T18:53:02.497Z,14.58
2023-03-06T18:55:30.250Z,15.70
2023-03-06T18:57:56.775Z,16.62
2023-03-06T19:00:23.692Z,16.78
2023-03-06T19:02:50.111Z,17.71
2023-03-06T19:05:16.787Z,19.13
2023-03-06T19:07:43.596Z,17.86
2023-03-06T19:10:10.073Z,17.28
2023-03-06T19:12:36.628Z,16.71
2023-03-06T19:15:03.116Z,15.92
2023-03-06T19:17:29.494Z,16.27
2023-03-06T19:19:55.924Z,17.06
2023-03-06T19:22:22.376Z,17.80
2023-03-06T19:24:48.796Z,17.74
2023-03-06T19:27:15.320Z,17.01
2023-03-06T19:29:41.940Z,17.24
2023-03-06T19:32:08.457Z,16.99
2023-03-06T19:34:37.389Z,17.02
2023-03-06T19:37:04.042Z,17.62
2023-03-06T19:39:30.613Z,17.88
2023-03-06T19:41:57.031Z,16.83
2023-03-06T19:44:23.524Z,17.91
2023-03-06T19:46:53.182Z,18.02
2023-03-06T19:49:19.662Z,17.20
2023-03-06T19:51:53.392Z,17.19
2023-03-06T19:54:20.074Z,17.82
2023-03-06T19:56:46.627Z,18.59
2023-03-06T19:59:15.778Z,20.44
2023-03-06T20:01:42.254Z,20.30
2023-03-06T20:04:08.772Z,20.68
2023-03-06T20:06:35.546Z,17.46
2023-03-06T20:09:02.218Z,17.11
2023-03-06T20:11:29.015Z,17.48
2023-03-06T20:13:55.734Z,18.82
2023-03-06T20:16:24.897Z,17.76
2023-03-06T20:18:51.781Z,17.77
2023-03-06T20:21:18.672Z,17.47
2023-03-06T20:23:45.618Z,17.75
2023-03-06T20:26:12.082Z,22.22
2023-03-06T20:28:39.325Z,223.03
2023-03-06T20:31:05.946Z,170.68
2023-03-06T20:33:33.248Z,48.81
2023-03-06T20:36:02.664Z,20.74
2023-03-06T20:38:29.144Z,19.60
2023-03-06T20:40:55.991Z,18.01
2023-03-06T20:43:22.500Z,18.28
2023-03-06T20:45:49.243Z,18.43
2023-03-06T20:48:16.158Z,18.13
2023-03-06T20:50:42.879Z,19.31
2023-03-06T20:53:09.458Z,19.36
2023-03-06T20:55:37.643Z,18.57
2023-03-06T20:58:08.808Z,18.44
2023-03-06T21:00:36.181Z,18.98
2023-03-06T21:03:02.733Z,18.44
2023-03-06T21:05:29.538Z,18.13
2023-03-06T21:07:56.220Z,17.54
2023-03-06T21:10:22.630Z,17.80
2023-03-06T21:12:54.207Z,17.50
2023-03-06T21:15:20.590Z,17.66
2023-03-06T21:17:47.072Z,17.28
2023-03-06T21:20:13.986Z,17.57
2023-03-06T21:22:40.703Z,17.85
2023-03-06T21:25:07.174Z,18.07
2023-03-06T21:27:33.938Z,17.58
2023-03-06T21:30:00.359Z,17.51
2023-03-06T21:32:26.957Z,17.71
2023-03-06T21:34:53.585Z,17.26
2023-03-06T21:37:20.322Z,17.54
2023-03-06T21:39:46.742Z,17.57
2023-03-06T21:42:16.087Z,17.10
2023-03-06T21:44:42.903Z,17.21
2023-03-06T21:47:09.423Z,17.01
2023-03-06T21:49:36.310Z,17.02
2023-03-06T21:52:02.935Z,17.33
2023-03-06T21:54:29.423Z,17.31
2023-03-06T21:56:57.401Z,17.01
2023-03-06T21:59:23.843Z,16.80
2023-03-06T22:01:50.609Z,17.80
2023-03-06T22:04:23.146Z,17.50
2023-03-06T22:06:49.751Z,16.68
2023-03-06T22:09:16.975Z,16.73
2023-03-06T22:11:43.954Z,17.49
2023-03-06T22:14:10.640Z,17.61
2023-03-06T22:16:37.528Z,17.39
2023-03-06T22:19:04.265Z,16.78
2023-03-06T22:21:30.780Z,16.72
2023-03-06T22:23:57.552Z,17.50
2023-03-06T22:26:24.271Z,17.35
2023-03-06T22:28:50.896Z,16.94
2023-03-06T22:31:17.355Z,17.69
2023-03-06T22:33:44.260Z,17.62
2023-03-06T22:36:11.027Z,17.31
2023-03-06T22:38:37.551Z,16.82
2023-03-06T22:41:06.212Z,18.60
2023-03-06T22:43:41.460Z,23.26
2023-03-06T22:46:07.935Z,19.54
2023-03-06T22:48:37.722Z,17.18
2023-03-06T22:51:04.421Z,18.24
2023-03-06T22:53:30.859Z,19.80
2023-03-06T22:56:01.985Z,21.11
2023-03-06T22:58:28.509Z,21.93
2023-03-06T23:00:54.949Z,22.70
2023-03-06T23:03:23.749Z,21.82
2023-03-06T23:05:50.175Z,20.95
2023-03-06T23:08:16.683Z,21.23
2023-03-06T23:10:43.079Z,25.45
2023-03-06T23:13:09.591Z,22.85
2023-03-06T23:15:36.001Z,22.65
2023-03-06T23:18:02.504Z,23.19
2023-03-06T23:20:28.919Z,22.16
2023-03-06T23:22:55.665Z,21.46
2023-03-06T23:25:22.076Z,26.22
2023-03-06T23:27:48.483Z,22.26
2023-03-06T23:30:14.891Z,23.45
2023-03-06T23:32:41.357Z,24.00
2023-03-06T23:35:07.738Z,20.06
2023-03-06T23:37:34.134Z,19.32
2023-03-06T23:40:00.617Z,20.34
2023-03-06T23:42:27.061Z,19.17
2023-03-06T23:44:53.487Z,19.67
2023-03-06T23:47:19.883Z,18.38
2023-03-06T23:49:46.308Z,19.23
2023-03-06T23:52:12.718Z,20.02
2023-03-06T23:54:39.114Z,17.90
2023-03-06T23:57:05.549Z,17.26
2023-03-06T23:59:31.947Z,17.75
